createdAt,value
2023-05-20T00:00:03.176Z,14.43
2023-05-20T00:01:09.475Z,13.68
2023-05-20T00:02:13.100Z,17.13
2023-05-20T00:03:20.823Z,15.30
2023-05-20T00:04:24.180Z,15.57
2023-05-20T00:05:27.620Z,15.13
2023-05-20T00:06:30.702Z,15.60
2023-05-20T00:07:34.343Z,13.77
2023-05-20T00:08:37.906Z,12.63
2023-05-20T00:09:41.508Z,10.15
2023-05-20T00:10:45.096Z,10.98
2023-05-20T00:11:48.563Z,14.63
2023-05-20T00:12:51.511Z,17.65
2023-05-20T00:13:54.865Z,14.10
2023-05-20T00:14:58.051Z,18.38
2023-05-20T00:16:02.207Z,18.77
2023-05-20T00:17:06.008Z,15.43
2023-05-20T00:18:08.913Z,13.45
2023-05-20T00:19:12.745Z,15.43
2023-05-20T00:20:16.623Z,19.27
2023-05-20T00:21:20.193Z,13.95
2023-05-20T00:22:23.587Z,16.08
2023-05-20T00:23:27.003Z,16.92
2023-05-20T00:24:29.934Z,17.83
2023-05-20T00:25:33.855Z,13.50
2023-05-20T00:26:37.499Z,21.80
2023-05-20T00:27:40.514Z,17.75
2023-05-20T00:28:44.148Z,14.82
2023-05-20T00:29:47.639Z,11.50
2023-05-20T00:30:50.979Z,16.05
2023-05-20T00:31:54.136Z,14.50
2023-05-20T00:32:57.314Z,16.25
2023-05-20T00:34:00.650Z,15.68
2023-05-20T00:35:04.724Z,12.95
2023-05-20T00:36:08.205Z,10.60
2023-05-20T00:37:11.645Z,12.63
2023-05-20T00:38:14.508Z,23.92
2023-05-20T00:39:17.962Z,19.50
2023-05-20T00:40:22.827Z,17.70
2023-05-20T00:41:26.741Z,23.38
2023-05-20T00:42:30.013Z,24.92
2023-05-20T00:43:33.681Z,18.88
2023-05-20T00:44:36.939Z,27.67
2023-05-20T00:45:40.208Z,22.65
2023-05-20T00:46:43.458Z,21.08
2023-05-20T00:47:47.139Z,14.10
2023-05-20T00:48:50.887Z,16.38
2023-05-20T00:49:53.762Z,14.65
2023-05-20T00:50:57.647Z,15.50
2023-05-20T00:52:01.397Z,11.63
2023-05-20T00:53:05.196Z,11.95
2023-05-20T00:54:08.914Z,18.70
2023-05-20T00:55:12.299Z,14.38
2023-05-20T00:56:15.950Z,12.20
2023-05-20T00:57:19.474Z,14.00
2023-05-20T00:58:22.610Z,18.50
2023-05-20T00:59:27.258Z,15.98
2023-05-20T01:00:30.666Z,24.42
2023-05-20T01:01:34.116Z,19.75
2023-05-20T01:02:37.971Z,22.25
2023-05-20T01:03:41.638Z,17.48
2023-05-20T01:04:48.046Z,22.98
2023-05-20T01:05:51.874Z,17.98
2023-05-20T01:06:56.697Z,16.63
2023-05-20T01:08:00.685Z,20.23
2023-05-20T01:09:04.032Z,21.92
2023-05-20T01:10:08.216Z,24.40
2023-05-20T01:11:30.468Z,21.92
2023-05-20T01:12:58.300Z,25.38
2023-05-20T01:14:07.499Z,26.40
2023-05-20T01:15:12.244Z,18.17
2023-05-20T01:16:16.224Z,20.27
2023-05-20T01:17:21.777Z,17.33
2023-05-20T01:18:27.642Z,18.02
2023-05-20T01:19:37.692Z,15.25
2023-05-20T01:20:40.972Z,13.80
2023-05-20T01:21:43.961Z,14.13
2023-05-20T01:23:05.450Z,17.15
2023-05-20T01:24:09.567Z,19.25
2023-05-20T01:25:13.161Z,18.77
2023-05-20T01:26:17.337Z,14.55
2023-05-20T01:27:26.602Z,18.20
2023-05-20T01:28:30.798Z,9.57
2023-05-20T01:29:34.244Z,13.52
2023-05-20T01:30:44.531Z,20.05
2023-05-20T01:31:49.679Z,15.85
2023-05-20T01:33:04.716Z,20.50
2023-05-20T01:34:08.239Z,15.80
2023-05-20T01:35:11.880Z,19.52
2023-05-20T01:36:15.335Z,15.02
2023-05-20T01:37:21.802Z,22.73
2023-05-20T01:38:25.616Z,23.15
2023-05-20T01:39:29.387Z,21.58
2023-05-20T01:40:33.190Z,18.13
2023-05-20T01:41:36.995Z,15.30
2023-05-20T01:42:40.454Z,9.85
2023-05-20T01:43:44.889Z,20.05
2023-05-20T01:44:47.902Z,14.15
2023-05-20T01:45:51.096Z,11.25
2023-05-20T01:46:55.448Z,10.73
2023-05-20T01:47:58.539Z,14.00
2023-05-20T01:49:02.022Z,12.40
2023-05-20T01:50:05.972Z,13.07
2023-05-20T01:51:09.555Z,16.38
2023-05-20T01:52:13.853Z,13.77
2023-05-20T01:53:17.896Z,13.80
2023-05-20T01:54:21.034Z,13.95
2023-05-20T01:55:25.839Z,10.40
2023-05-20T01:56:29.842Z,16.80
2023-05-20T01:57:32.911Z,20.70
2023-05-20T01:58:36.187Z,15.48
2023-05-20T01:59:40.195Z,17.85
2023-05-20T02:00:43.632Z,16.75
2023-05-20T02:01:47.236Z,16.05
2023-05-20T02:02:52.674Z,17.65
2023-05-20T02:03:56.083Z,12.88
2023-05-20T02:04:59.687Z,15.20
2023-05-20T02:06:03.351Z,20.98
2023-05-20T02:07:07.163Z,16.70
2023-05-20T02:08:10.375Z,16.13
2023-05-20T02:09:14.301Z,19.35
2023-05-20T02:10:17.492Z,14.15
2023-05-20T02:11:20.908Z,11.30
2023-05-20T02:12:24.304Z,15.15
2023-05-20T02:13:28.174Z,14.75
2023-05-20T02:14:32.029Z,18.20
2023-05-20T02:15:35.837Z,14.50
2023-05-20T02:16:39.539Z,13.43
2023-05-20T02:17:44.621Z,18.63
2023-05-20T02:18:48.243Z,22.73
2023-05-20T02:19:54.062Z,20.98
2023-05-20T02:20:57.669Z,17.17
2023-05-20T02:22:01.074Z,22.35
2023-05-20T02:23:06.997Z,19.38
2023-05-20T02:24:10.720Z,19.30
2023-05-20T02:25:14.249Z,24.52
2023-05-20T02:26:17.963Z,25.80
2023-05-20T02:27:21.002Z,32.75
2023-05-20T02:28:24.453Z,21.33
2023-05-20T02:29:27.650Z,25.20
2023-05-20T02:30:31.026Z,22.70
2023-05-20T02:31:34.431Z,21.42
2023-05-20T02:32:39.235Z,20.40
2023-05-20T02:33:42.799Z,23.25
2023-05-20T02:34:46.824Z,17.58
2023-05-20T02:35:51.295Z,22.35
2023-05-20T02:36:55.420Z,20.25
2023-05-20T02:37:59.041Z,18.58
2023-05-20T02:39:02.761Z,16.33
2023-05-20T02:40:10.178Z,22.55
2023-05-20T02:41:15.596Z,18.10
2023-05-20T02:42:19.801Z,23.05
2023-05-20T02:43:23.393Z,26.38
2023-05-20T02:44:27.068Z,20.92
2023-05-20T02:45:31.446Z,22.20
2023-05-20T02:46:35.169Z,21.50
2023-05-20T02:47:38.822Z,24.73
2023-05-20T02:48:42.198Z,28.27
2023-05-20T02:49:45.590Z,20.80
2023-05-20T02:50:49.101Z,22.95
2023-05-20T02:51:52.216Z,28.88
2023-05-20T02:52:55.954Z,23.48
2023-05-20T02:54:00.027Z,23.88
2023-05-20T02:55:03.507Z,27.35
2023-05-20T02:56:09.216Z,28.15
2023-05-20T02:57:12.712Z,18.05
2023-05-20T02:58:16.151Z,23.92
2023-05-20T02:59:20.149Z,24.30
2023-05-20T03:00:24.162Z,19.45
2023-05-20T03:01:27.595Z,25.98
2023-05-20T03:02:30.869Z,15.57
2023-05-20T03:03:34.535Z,21.98
2023-05-20T03:04:39.646Z,21.98
2023-05-20T03:05:47.335Z,23.88
2023-05-20T03:06:52.580Z,19.50
2023-05-20T03:07:56.413Z,19.83
2023-05-20T03:08:59.932Z,21.05
2023-05-20T03:10:03.625Z,20.08
2023-05-20T03:11:08.117Z,20.02
2023-05-20T03:12:11.270Z,15.65
2023-05-20T03:13:15.742Z,20.73
2023-05-20T03:14:19.123Z,17.63
2023-05-20T03:15:22.486Z,31.85
2023-05-20T03:16:25.874Z,27.88
2023-05-20T03:17:29.562Z,25.25
2023-05-20T03:18:34.235Z,23.77
2023-05-20T03:19:37.623Z,18.13
2023-05-20T03:20:42.116Z,27.60
2023-05-20T03:21:47.584Z,28.38
2023-05-20T03:22:51.302Z,25.85
2023-05-20T03:23:54.438Z,23.80
2023-05-20T03:24:57.591Z,21.08
2023-05-20T03:26:01.383Z,25.23
2023-05-20T03:27:04.789Z,26.83
2023-05-20T03:28:09.416Z,26.27
2023-05-20T03:29:14.098Z,23.55
2023-05-20T03:30:17.132Z,22.20
2023-05-20T03:31:20.948Z,19.73
2023-05-20T03:32:24.559Z,28.45
2023-05-20T03:33:27.826Z,29.70
2023-05-20T03:34:31.940Z,28.85
2023-05-20T03:35:37.341Z,24.33
2023-05-20T03:36:40.665Z,25.80
2023-05-20T03:37:43.975Z,24.50
2023-05-20T03:38:48.516Z,23.60
2023-05-20T03:39:52.119Z,28.92
2023-05-20T03:40:55.382Z,21.42
2023-05-20T03:41:58.921Z,22.90
2023-05-20T03:43:02.232Z,18.38
2023-05-20T03:44:06.134Z,23.00
2023-05-20T03:45:10.753Z,23.02
2023-05-20T03:46:21.557Z,21.55
2023-05-20T03:47:25.176Z,21.52
2023-05-20T03:48:28.869Z,17.08
2023-05-20T03:49:31.951Z,16.02
2023-05-20T03:50:35.724Z,17.38
2023-05-20T03:51:39.491Z,16.77
2023-05-20T03:52:47.170Z,16.15
2023-05-20T03:53:51.798Z,15.73
2023-05-20T03:54:55.439Z,23.50
2023-05-20T03:55:58.999Z,23.17
2023-05-20T03:57:03.949Z,16.17
2023-05-20T03:58:07.854Z,18.52
2023-05-20T03:59:11.000Z,14.73
2023-05-20T04:00:15.117Z,15.32
2023-05-20T04:01:21.778Z,14.23
2023-05-20T04:02:24.937Z,16.30
2023-05-20T04:03:29.817Z,15.45
2023-05-20T04:04:33.929Z,13.70
2023-05-20T04:05:37.814Z,22.45
2023-05-20T04:06:50.744Z,13.77
2023-05-20T04:07:53.893Z,23.98
2023-05-20T04:09:00.198Z,17.33
2023-05-20T04:10:04.143Z,14.70
2023-05-20T04:11:07.333Z,17.98
2023-05-20T04:12:10.522Z,16.17
2023-05-20T04:13:14.116Z,20.30
2023-05-20T04:14:19.011Z,14.75
2023-05-20T04:15:24.378Z,20.27
2023-05-20T04:16:33.618Z,16.92
2023-05-20T04:17:39.251Z,14.85
2023-05-20T04:18:42.985Z,17.25
2023-05-20T04:19:46.747Z,15.82
2023-05-20T04:20:50.647Z,19.67
2023-05-20T04:21:53.811Z,13.75
2023-05-20T04:22:57.603Z,15.23
2023-05-20T04:24:01.175Z,15.18
2023-05-20T04:25:06.141Z,17.27
2023-05-20T04:26:10.041Z,14.05
2023-05-20T04:27:14.925Z,15.68
2023-05-20T04:28:18.678Z,15.35
2023-05-20T04:29:22.233Z,17.67
2023-05-20T04:30:25.719Z,14.10
2023-05-20T04:31:29.401Z,19.23
2023-05-20T04:32:35.225Z,13.93
2023-05-20T04:33:38.967Z,19.13
2023-05-20T04:34:43.274Z,14.77
2023-05-20T04:35:49.532Z,14.80
2023-05-20T04:36:53.006Z,16.80
2023-05-20T04:37:56.887Z,16.20
2023-05-20T04:39:00.361Z,8.85
2023-05-20T04:40:07.635Z,10.80
2023-05-20T04:41:11.890Z,11.82
2023-05-20T04:42:16.016Z,14.10
2023-05-20T04:43:19.674Z,10.68
2023-05-20T04:44:26.004Z,12.50
2023-05-20T04:45:29.489Z,10.45
2023-05-20T04:46:34.514Z,10.23
2023-05-20T04:47:39.497Z,9.60
2023-05-20T04:48:44.761Z,11.00
2023-05-20T04:49:50.784Z,11.43
2023-05-20T04:50:55.344Z,12.95
2023-05-20T04:51:59.526Z,13.70
2023-05-20T04:53:03.378Z,13.80
2023-05-20T04:54:06.677Z,12.25
2023-05-20T04:55:13.249Z,13.35
2023-05-20T04:56:16.846Z,10.95
2023-05-20T04:57:21.750Z,10.10
2023-05-20T04:58:26.011Z,10.68
2023-05-20T04:59:29.389Z,13.02
2023-05-20T05:00:33.078Z,12.85
2023-05-20T05:01:36.787Z,9.73
2023-05-20T05:02:40.212Z,9.45
2023-05-20T05:03:43.510Z,8.77
2023-05-20T05:04:47.583Z,7.53
2023-05-20T05:05:51.374Z,9.00
2023-05-20T05:06:55.606Z,7.25
2023-05-20T05:07:59.226Z,10.23
2023-05-20T05:09:02.745Z,8.73
2023-05-20T05:10:06.607Z,8.00
2023-05-20T05:11:09.868Z,9.98
2023-05-20T05:12:12.963Z,10.70
2023-05-20T05:13:16.841Z,8.07
2023-05-20T05:14:20.665Z,8.85
2023-05-20T05:15:24.356Z,10.82
2023-05-20T05:16:27.886Z,9.77
2023-05-20T05:17:31.308Z,8.18
2023-05-20T05:18:35.446Z,7.97
2023-05-20T05:19:38.745Z,9.35
2023-05-20T05:20:42.590Z,14.30
2023-05-20T05:21:46.399Z,10.90
2023-05-20T05:22:51.665Z,9.23
2023-05-20T05:23:57.444Z,9.00
2023-05-20T05:25:02.190Z,9.15
2023-05-20T05:26:05.545Z,9.80
2023-05-20T05:27:08.922Z,13.05
2023-05-20T05:28:12.429Z,10.32
2023-05-20T05:29:15.753Z,10.15
2023-05-20T05:30:19.316Z,10.63
2023-05-20T05:31:23.022Z,8.00
2023-05-20T05:32:26.981Z,8.85
2023-05-20T05:33:30.731Z,7.35
2023-05-20T05:34:33.785Z,10.30
2023-05-20T05:35:36.950Z,11.93
2023-05-20T05:36:40.694Z,13.18
2023-05-20T05:37:44.340Z,15.60
2023-05-20T05:38:48.466Z,9.52
2023-05-20T05:39:51.821Z,8.48
2023-05-20T05:40:55.002Z,6.35
2023-05-20T05:41:59.475Z,8.57
2023-05-20T05:43:03.696Z,8.55
2023-05-20T05:44:07.456Z,7.22
2023-05-20T05:45:11.999Z,7.95
2023-05-20T05:46:16.055Z,9.85
2023-05-20T05:47:20.134Z,5.63
2023-05-20T05:48:23.823Z,8.18
2023-05-20T05:49:27.340Z,7.32
2023-05-20T05:50:30.930Z,6.80
2023-05-20T05:52:37.985Z,5.85
2023-05-20T05:53:45.010Z,13.63
2023-05-20T05:54:48.108Z,13.73
2023-05-20T05:55:51.463Z,5.55
2023-05-20T05:56:55.431Z,6.38
2023-05-20T05:57:59.829Z,7.50
2023-05-20T05:59:06.159Z,10.73
2023-05-20T06:00:10.476Z,8.70
2023-05-20T06:01:22.872Z,9.85
2023-05-20T06:02:26.628Z,6.68
2023-05-20T06:03:31.598Z,8.32
2023-05-20T06:04:34.827Z,8.68
2023-05-20T06:05:38.086Z,9.20
2023-05-20T06:06:42.348Z,8.90
2023-05-20T06:07:45.713Z,17.65
2023-05-20T06:08:48.976Z,8.75
2023-05-20T06:09:52.822Z,9.30
2023-05-20T06:10:56.589Z,17.70
2023-05-20T06:12:00.139Z,11.65
2023-05-20T06:13:03.775Z,9.88
2023-05-20T06:14:08.490Z,8.63
2023-05-20T06:15:12.526Z,10.00
2023-05-20T06:16:16.136Z,7.55
2023-05-20T06:17:19.521Z,6.25
2023-05-20T06:18:23.165Z,10.15
2023-05-20T06:19:30.802Z,7.82
2023-05-20T06:20:34.038Z,8.32
2023-05-20T06:21:37.484Z,6.60
2023-05-20T06:22:41.688Z,7.43
2023-05-20T06:23:45.261Z,8.73
2023-05-20T06:24:50.521Z,10.48
2023-05-20T06:25:58.567Z,6.10
2023-05-20T06:27:02.039Z,7.97
2023-05-20T06:28:06.309Z,10.20
2023-05-20T06:29:09.894Z,7.93
2023-05-20T06:30:13.521Z,10.15
2023-05-20T06:31:16.849Z,3.67
2023-05-20T06:32:20.630Z,6.97
2023-05-20T06:33:28.070Z,7.10
2023-05-20T06:34:35.547Z,9.60
2023-05-20T06:35:38.751Z,4.95
2023-05-20T06:36:42.325Z,5.88
2023-05-20T06:37:45.562Z,7.20
2023-05-20T06:38:49.196Z,6.60
2023-05-20T06:39:54.456Z,8.18
2023-05-20T06:40:58.294Z,5.72
2023-05-20T06:42:02.197Z,7.70
2023-05-20T06:43:06.828Z,9.27
2023-05-20T06:44:36.094Z,8.38
2023-05-20T06:45:57.961Z,6.53
2023-05-20T06:47:07.525Z,5.57
2023-05-20T06:48:12.121Z,9.80
2023-05-20T06:49:15.516Z,7.70
2023-05-20T06:50:18.803Z,5.13
2023-05-20T06:51:22.727Z,4.78
2023-05-20T06:52:26.667Z,6.05
2023-05-20T06:53:29.885Z,5.50
2023-05-20T06:54:37.216Z,8.77
2023-05-20T06:55:41.138Z,5.18
2023-05-20T06:56:45.379Z,5.93
2023-05-20T06:57:49.930Z,7.28
2023-05-20T06:58:55.101Z,6.72
2023-05-20T06:59:58.482Z,10.50
2023-05-20T07:01:02.186Z,4.28
2023-05-20T07:02:06.997Z,5.63
2023-05-20T07:03:12.517Z,5.70
2023-05-20T07:04:16.862Z,8.35
2023-05-20T07:05:20.717Z,9.45
2023-05-20T07:06:23.900Z,7.93
2023-05-20T07:07:27.569Z,5.80
2023-05-20T07:08:30.481Z,7.72
2023-05-20T07:09:33.819Z,8.88
2023-05-20T07:10:38.306Z,7.03
2023-05-20T07:11:41.745Z,7.07
2023-05-20T07:12:44.943Z,8.48
2023-05-20T07:13:48.213Z,5.90
2023-05-20T07:14:51.977Z,10.57
2023-05-20T07:15:55.543Z,4.65
2023-05-20T07:16:58.985Z,4.18
2023-05-20T07:18:02.267Z,6.28
2023-05-20T07:19:06.615Z,7.13
2023-05-20T07:20:11.199Z,6.55
2023-05-20T07:21:15.543Z,5.68
2023-05-20T07:22:37.788Z,5.85
2023-05-20T07:24:02.566Z,4.38
2023-05-20T07:25:07.542Z,7.63
2023-05-20T07:26:12.340Z,4.47
2023-05-20T07:27:15.574Z,5.18
2023-05-20T07:28:18.990Z,4.90
2023-05-20T07:29:22.380Z,5.15
2023-05-20T07:30:25.598Z,5.10
2023-05-20T07:31:51.772Z,4.35
2023-05-20T07:32:55.521Z,6.75
2023-05-20T07:33:59.332Z,5.18
2023-05-20T07:35:02.970Z,4.60
2023-05-20T07:36:09.121Z,2.63
2023-05-20T07:37:16.587Z,7.43
2023-05-20T07:38:19.508Z,5.00
2023-05-20T07:39:27.980Z,4.93
2023-05-20T07:40:31.532Z,6.00
2023-05-20T07:41:35.189Z,5.10
2023-05-20T07:42:38.529Z,10.77
2023-05-20T07:43:41.885Z,3.00
2023-05-20T07:44:46.047Z,5.45
2023-05-20T07:45:49.936Z,5.53
2023-05-20T07:46:53.565Z,5.45
2023-05-20T07:47:56.638Z,6.30
2023-05-20T07:49:00.343Z,7.75
2023-05-20T07:50:04.007Z,4.28
2023-05-20T07:51:09.962Z,4.15
2023-05-20T07:52:13.473Z,2.65
2023-05-20T07:53:16.957Z,4.65
2023-05-20T07:54:20.839Z,5.90
2023-05-20T07:55:27.033Z,6.80
2023-05-20T07:56:31.911Z,6.85
2023-05-20T07:57:35.430Z,4.55
2023-05-20T07:58:39.206Z,4.13
2023-05-20T07:59:42.864Z,3.97
2023-05-20T08:00:46.582Z,3.45
2023-05-20T08:01:50.277Z,4.72
2023-05-20T08:02:55.775Z,4.40
2023-05-20T08:04:07.657Z,3.00
2023-05-20T08:05:12.590Z,4.50
2023-05-20T08:06:16.727Z,4.43
2023-05-20T08:07:20.641Z,2.78
2023-05-20T08:08:31.220Z,4.35
2023-05-20T08:09:40.097Z,3.35
2023-05-20T08:10:43.776Z,2.88
2023-05-20T08:11:47.584Z,3.10
2023-05-20T08:12:51.583Z,2.78
2023-05-20T08:13:54.805Z,8.02
2023-05-20T08:15:00.258Z,2.53
2023-05-20T08:16:09.821Z,4.18
2023-05-20T08:17:13.580Z,2.80
2023-05-20T08:18:16.906Z,5.05
2023-05-20T08:19:20.627Z,7.25
2023-05-20T08:20:27.371Z,2.05
2023-05-20T08:21:30.564Z,2.78
2023-05-20T08:22:34.474Z,2.35
2023-05-20T08:23:40.412Z,5.70
2023-05-20T08:24:44.680Z,5.05
2023-05-20T08:25:48.930Z,6.97
2023-05-20T08:26:53.407Z,4.05
2023-05-20T08:27:59.798Z,4.25
2023-05-20T08:29:03.572Z,5.15
2023-05-20T08:30:10.359Z,4.68
2023-05-20T08:31:14.325Z,4.00
2023-05-20T08:32:17.945Z,3.88
2023-05-20T08:33:23.010Z,1.88
2023-05-20T08:34:26.312Z,3.95
2023-05-20T08:35:29.634Z,5.68
2023-05-20T08:36:33.135Z,4.68
2023-05-20T08:37:36.402Z,2.58
2023-05-20T08:38:39.987Z,3.83
2023-05-20T08:39:46.100Z,5.50
2023-05-20T08:40:58.219Z,2.08
2023-05-20T08:42:02.722Z,2.78
2023-05-20T08:43:06.179Z,2.60
2023-05-20T08:44:09.565Z,7.32
2023-05-20T08:45:14.310Z,2.83
2023-05-20T08:46:18.901Z,7.07
2023-05-20T08:47:22.647Z,4.00
2023-05-20T08:48:28.317Z,4.28
2023-05-20T08:49:32.456Z,2.97
2023-05-20T08:50:35.774Z,3.00
2023-05-20T08:51:39.126Z,5.13
2023-05-20T08:52:46.539Z,3.20
2023-05-20T08:53:49.723Z,4.47
2023-05-20T08:54:52.997Z,2.63
2023-05-20T08:56:04.263Z,5.55
2023-05-20T08:57:08.005Z,7.22
2023-05-20T08:58:11.493Z,5.50
2023-05-20T08:59:14.635Z,5.72
2023-05-20T09:00:19.262Z,2.70
2023-05-20T09:01:28.451Z,4.28
2023-05-20T09:02:32.009Z,8.75
2023-05-20T09:03:35.448Z,2.25
2023-05-20T09:04:39.152Z,3.63
2023-05-20T09:05:42.368Z,3.78
2023-05-20T09:06:46.427Z,2.20
2023-05-20T09:07:50.214Z,6.28
2023-05-20T09:08:53.186Z,4.78
2023-05-20T09:09:56.345Z,2.50
2023-05-20T09:10:59.892Z,2.35
2023-05-20T09:12:03.688Z,4.57
2023-05-20T09:13:07.731Z,10.25
2023-05-20T09:14:11.112Z,4.28
2023-05-20T09:15:14.640Z,4.15
2023-05-20T09:16:17.883Z,3.13
2023-05-20T09:17:22.821Z,1.92
2023-05-20T09:18:27.714Z,2.75
2023-05-20T09:19:31.245Z,5.53
2023-05-20T09:20:38.577Z,3.47
2023-05-20T09:21:42.427Z,2.05
2023-05-20T09:22:46.110Z,4.10
2023-05-20T09:23:50.220Z,3.47
2023-05-20T09:24:53.921Z,3.33
2023-05-20T09:25:57.306Z,4.07
2023-05-20T09:27:00.541Z,2.55
2023-05-20T09:28:08.112Z,4.72
2023-05-20T09:29:11.254Z,3.63
2023-05-20T09:30:14.779Z,3.58
2023-05-20T09:31:18.696Z,1.90
2023-05-20T09:32:25.517Z,5.18
2023-05-20T09:33:30.664Z,1.90
2023-05-20T09:34:34.146Z,3.65
2023-05-20T09:35:40.148Z,3.78
2023-05-20T09:36:44.953Z,2.28
2023-05-20T09:37:48.060Z,2.50
2023-05-20T09:38:54.400Z,2.42
2023-05-20T09:40:01.528Z,4.95
2023-05-20T09:41:13.196Z,3.78
2023-05-20T09:42:29.442Z,2.50
2023-05-20T09:43:32.623Z,2.00
2023-05-20T09:44:36.312Z,2.20
2023-05-20T09:45:39.441Z,5.78
2023-05-20T09:46:43.194Z,4.93
2023-05-20T09:47:47.163Z,2.90
2023-05-20T09:48:50.793Z,4.47
2023-05-20T09:49:54.381Z,4.30
2023-05-20T09:50:57.933Z,3.17
2023-05-20T09:52:01.268Z,4.90
2023-05-20T09:53:05.766Z,3.63
2023-05-20T09:54:09.332Z,1.92
2023-05-20T09:55:12.907Z,2.35
2023-05-20T09:56:16.768Z,2.75
2023-05-20T09:57:20.164Z,2.67
2023-05-20T09:58:26.679Z,2.03
2023-05-20T09:59:30.048Z,3.28
2023-05-20T10:00:33.566Z,2.85
2023-05-20T10:01:37.419Z,2.40
2023-05-20T10:02:51.385Z,3.80
2023-05-20T10:03:54.476Z,4.53
2023-05-20T10:04:58.765Z,3.70
2023-05-20T10:06:10.799Z,4.22
2023-05-20T10:07:33.979Z,2.75
2023-05-20T10:09:13.008Z,2.47
2023-05-20T10:10:24.378Z,3.25
2023-05-20T10:11:57.265Z,3.45
2023-05-20T10:13:19.971Z,2.45
2023-05-20T10:14:48.306Z,2.67
2023-05-20T10:16:00.139Z,2.58
2023-05-20T10:17:19.791Z,6.00
2023-05-20T10:18:29.856Z,6.68
2023-05-20T10:19:36.281Z,4.40
2023-05-20T10:20:51.843Z,3.15
2023-05-20T10:22:12.786Z,2.50
2023-05-20T10:23:25.942Z,2.60
2023-05-20T10:24:58.397Z,4.05
2023-05-20T10:26:07.381Z,5.35
2023-05-20T10:27:17.714Z,2.53
2023-05-20T10:28:34.604Z,4.50
2023-05-20T10:29:54.034Z,3.97
2023-05-20T10:30:57.546Z,1.98
2023-05-20T10:32:00.631Z,5.15
2023-05-20T10:33:06.746Z,2.20
2023-05-20T10:34:16.362Z,2.10
2023-05-20T10:35:22.994Z,2.88
2023-05-20T10:36:31.152Z,3.65
2023-05-20T10:37:41.851Z,10.18
2023-05-20T10:38:59.727Z,4.20
2023-05-20T10:40:15.760Z,3.08
2023-05-20T10:41:22.693Z,2.58
2023-05-20T10:42:30.225Z,4.45
2023-05-20T10:43:33.855Z,2.88
2023-05-20T10:44:43.575Z,6.53
2023-05-20T10:45:54.610Z,5.53
2023-05-20T10:48:35.065Z,5.35
2023-05-20T10:49:43.041Z,5.38
2023-05-20T10:50:46.532Z,3.65
2023-05-20T10:51:50.087Z,3.40
2023-05-20T10:52:53.405Z,5.05
2023-05-20T10:53:56.786Z,4.45
2023-05-20T10:55:00.942Z,4.13
2023-05-20T10:56:04.813Z,2.10
2023-05-20T10:57:10.303Z,3.42
2023-05-20T10:58:13.439Z,2.65
2023-05-20T10:59:16.919Z,4.80
2023-05-20T11:00:21.682Z,4.00
2023-05-20T11:01:27.465Z,3.70
2023-05-20T11:02:31.232Z,4.45
2023-05-20T11:03:36.256Z,3.50
2023-05-20T11:04:40.063Z,8.77
2023-05-20T11:05:43.482Z,6.18
2023-05-20T11:06:54.715Z,2.58
2023-05-20T11:08:08.074Z,2.35
2023-05-20T11:09:14.706Z,3.33
2023-05-20T11:10:17.882Z,2.28
2023-05-20T11:11:22.559Z,3.03
2023-05-20T11:12:26.539Z,4.40
2023-05-20T11:13:29.669Z,5.40
2023-05-20T11:14:32.869Z,3.38
2023-05-20T11:15:37.502Z,2.83
2023-05-20T11:16:40.997Z,3.05
2023-05-20T11:17:56.524Z,2.00
2023-05-20T11:18:59.875Z,2.85
2023-05-20T11:20:03.658Z,2.95
2023-05-20T11:21:07.248Z,4.28
2023-05-20T11:22:10.883Z,3.42
2023-05-20T11:23:15.603Z,2.15
2023-05-20T11:24:27.400Z,2.83
2023-05-20T11:25:30.938Z,4.50
2023-05-20T11:26:34.281Z,4.00
2023-05-20T11:27:40.983Z,3.00
2023-05-20T11:28:44.196Z,2.55
2023-05-20T11:29:48.242Z,2.22
2023-05-20T11:30:54.644Z,3.33
2023-05-20T11:31:57.965Z,2.60
2023-05-20T11:33:02.050Z,7.25
2023-05-20T11:34:05.804Z,2.47
2023-05-20T11:35:10.359Z,5.55
2023-05-20T11:36:27.051Z,4.72
2023-05-20T11:37:32.309Z,5.10
2023-05-20T11:38:35.670Z,3.22
2023-05-20T11:39:39.262Z,4.13
2023-05-20T11:40:51.143Z,5.95
2023-05-20T11:41:55.483Z,6.15
2023-05-20T11:43:02.189Z,4.38
2023-05-20T11:44:05.764Z,3.65
2023-05-20T11:45:14.168Z,2.83
2023-05-20T11:46:17.397Z,7.40
2023-05-20T11:47:28.880Z,3.97
2023-05-20T11:48:32.238Z,8.55
2023-05-20T11:49:41.328Z,2.50
2023-05-20T11:50:45.907Z,4.28
2023-05-20T11:51:49.434Z,4.47
2023-05-20T11:53:02.256Z,4.40
2023-05-20T11:54:07.329Z,3.60
2023-05-20T11:55:15.819Z,2.65
2023-05-20T11:56:19.506Z,3.72
2023-05-20T11:57:23.886Z,6.00
2023-05-20T11:58:28.892Z,2.72
2023-05-20T11:59:32.126Z,3.90
2023-05-20T12:00:49.386Z,5.32
2023-05-20T12:01:55.408Z,4.22
2023-05-20T12:02:58.882Z,2.42
2023-05-20T12:04:02.937Z,2.90
2023-05-20T12:05:07.514Z,3.63
2023-05-20T12:06:13.235Z,4.80
2023-05-20T12:07:16.844Z,2.67
2023-05-20T12:08:20.106Z,4.28
2023-05-20T12:09:22.975Z,7.72
2023-05-20T12:10:26.627Z,2.28
2023-05-20T12:11:29.843Z,5.13
2023-05-20T12:12:33.519Z,5.10
2023-05-20T12:13:36.662Z,3.20
2023-05-20T12:14:40.421Z,6.20
2023-05-20T12:15:44.091Z,3.97
2023-05-20T12:16:47.509Z,4.22
2023-05-20T12:17:53.264Z,4.60
2023-05-20T12:18:57.180Z,2.70
2023-05-20T12:20:00.814Z,3.75
2023-05-20T12:21:04.603Z,3.70
2023-05-20T12:22:08.130Z,4.35
2023-05-20T12:23:12.117Z,4.82
2023-05-20T12:24:15.130Z,5.53
2023-05-20T12:25:19.695Z,5.88
2023-05-20T12:26:23.701Z,3.20
2023-05-20T12:27:27.234Z,2.47
2023-05-20T12:28:30.543Z,3.25
2023-05-20T12:29:34.456Z,3.80
2023-05-20T12:30:38.131Z,2.70
2023-05-20T12:31:41.861Z,4.07
2023-05-20T12:32:45.726Z,1.90
2023-05-20T12:33:49.025Z,2.80
2023-05-20T12:34:52.260Z,2.97
2023-05-20T12:35:55.745Z,2.90
2023-05-20T12:36:59.368Z,4.55
2023-05-20T12:38:02.774Z,2.40
2023-05-20T12:39:06.608Z,4.18
2023-05-20T12:40:12.116Z,5.18
2023-05-20T12:41:15.589Z,5.53
2023-05-20T12:42:19.037Z,4.57
2023-05-20T12:43:22.831Z,2.78
2023-05-20T12:44:26.307Z,4.25
2023-05-20T12:45:29.465Z,6.72
2023-05-20T12:46:33.135Z,6.63
2023-05-20T12:47:36.941Z,5.55
2023-05-20T12:48:42.565Z,4.53
2023-05-20T12:49:46.371Z,2.83
2023-05-20T12:50:50.137Z,5.40
2023-05-20T12:51:53.394Z,6.22
2023-05-20T12:52:56.507Z,4.75
2023-05-20T12:53:59.709Z,3.63
2023-05-20T12:55:04.590Z,3.42
2023-05-20T12:56:08.134Z,11.63
2023-05-20T12:57:11.856Z,6.00
2023-05-20T12:58:15.609Z,3.28
2023-05-20T12:59:18.928Z,4.28
2023-05-20T13:00:22.088Z,7.25
2023-05-20T13:01:25.482Z,3.58
2023-05-20T13:02:29.593Z,3.78
2023-05-20T13:03:32.965Z,7.07
2023-05-20T13:04:36.360Z,6.63
2023-05-20T13:05:39.564Z,4.00
2023-05-20T13:06:43.091Z,7.60
2023-05-20T13:07:47.066Z,5.80
2023-05-20T13:08:50.887Z,4.28
2023-05-20T13:09:54.745Z,6.43
2023-05-20T13:10:57.968Z,4.93
2023-05-20T13:12:02.410Z,5.07
2023-05-20T13:13:05.443Z,6.35
2023-05-20T13:14:08.768Z,2.70
2023-05-20T13:15:12.980Z,5.47
2023-05-20T13:16:19.184Z,4.15
2023-05-20T13:17:22.574Z,4.18
2023-05-20T13:18:26.282Z,4.47
2023-05-20T13:19:29.566Z,3.45
2023-05-20T13:20:33.319Z,5.63
2023-05-20T13:21:37.548Z,2.90
2023-05-20T13:22:41.369Z,2.30
2023-05-20T13:23:45.006Z,3.22
2023-05-20T13:24:48.305Z,7.07
2023-05-20T13:25:51.860Z,8.70
2023-05-20T13:26:55.049Z,6.68
2023-05-20T13:27:58.650Z,4.13
2023-05-20T13:29:02.565Z,4.13
2023-05-20T13:30:07.990Z,7.07
2023-05-20T13:31:11.507Z,3.92
2023-05-20T13:32:14.965Z,6.45
2023-05-20T13:33:18.726Z,5.57
2023-05-20T13:34:22.182Z,6.22
2023-05-20T13:35:25.324Z,4.15
2023-05-20T13:36:28.643Z,5.78
2023-05-20T13:37:32.434Z,5.85
2023-05-20T13:38:37.460Z,6.05
2023-05-20T13:39:40.946Z,5.43
2023-05-20T13:40:44.387Z,4.95
2023-05-20T13:41:47.576Z,5.93
2023-05-20T13:42:51.108Z,6.20
2023-05-20T13:43:54.643Z,6.53
2023-05-20T13:44:58.010Z,7.63
2023-05-20T13:46:01.402Z,6.75
2023-05-20T13:47:05.206Z,3.30
2023-05-20T13:48:08.769Z,6.75
2023-05-20T13:49:12.149Z,5.78
2023-05-20T13:50:15.639Z,4.65
2023-05-20T13:51:18.783Z,5.97
2023-05-20T13:52:22.316Z,4.53
2023-05-20T13:53:25.739Z,5.93
2023-05-20T13:54:29.443Z,4.82
2023-05-20T13:55:33.331Z,10.30
2023-05-20T13:56:36.581Z,3.13
2023-05-20T13:57:39.446Z,4.25
2023-05-20T13:58:42.838Z,3.22
2023-05-20T13:59:46.775Z,3.30
2023-05-20T14:00:50.082Z,9.45
2023-05-20T14:01:54.740Z,5.75
2023-05-20T14:02:58.741Z,5.85
2023-05-20T14:04:02.631Z,6.43
2023-05-20T14:05:07.883Z,3.97
2023-05-20T14:06:11.523Z,9.75
2023-05-20T14:07:14.774Z,6.13
2023-05-20T14:08:18.277Z,3.88
2023-05-20T14:09:21.512Z,3.15
2023-05-20T14:10:25.198Z,6.18
2023-05-20T14:11:28.684Z,7.90
2023-05-20T14:12:32.593Z,3.28
2023-05-20T14:13:36.069Z,4.60
2023-05-20T14:14:39.580Z,5.03
2023-05-20T14:15:43.906Z,6.00